KLGA

Laguardia Airport

New York, New York, USA
KLGA 251729Z 2518/2624 07012KT 3SM -SHRA BR OVC006 FM252300 08007KT 1/2SM -SHRA FG OVC004 FM260200 VRB05KT 1/2SM FG VCSH OVC003 FM260800 27007KT 3SM BR SCT005 OVC015 FM261000 29010KT P6SM FEW010 BKN025 FM261300 28012KT P6SM SCT035 SCT100 FM261600 27012G20KT P6SM SCT250
Issued Valid From Valid To
Apr-25 @ 17:29 UTC
(40 minutes ago)
Apr-25 @ 18:00 UTC
(9 minutes ago)
Apr-27 @ 00:00 UTC
(-1 days ago)
Apr-25 @ 18:00 to Apr-25 @ 23:00
KLGA 251729Z 2518/2624 07012KT 3SM -SHRA BR OVC006
Wind Visibility Clouds Conditions
70° at 12 knots 3 miles
  • Overcast at 600' AGL
  • Light Rain
  • Mist
From Apr-25 @ 23:00 to Apr-26 @ 02:00
FM252300 08007KT 1/2SM -SHRA FG OVC004
Wind Visibility Clouds Conditions
80° at 7 knots 1/2 miles
  • Overcast at 400' AGL
  • Light Rain
  • Fog
From Apr-26 @ 02:00 to Apr-26 @ 08:00
FM260200 VRB05KT 1/2SM FG VCSH OVC003
Wind Visibility Clouds Conditions
Variable at 5 knots 1/2 miles
  • Overcast at 300' AGL
  • Fog
From Apr-26 @ 08:00 to Apr-26 @ 10:00
FM260800 27007KT 3SM BR SCT005 OVC015
Wind Visibility Clouds Conditions
270° at 7 knots 3 miles
  • Scattered at 500' AGL
  • Overcast at 1,500' AGL
  • Mist
From Apr-26 @ 10:00 to Apr-26 @ 13:00
FM261000 29010KT P6SM FEW010 BKN025
Wind Visibility Clouds
290° at 10 knots Greater than 6 miles
  • Few at 1,000' AGL
  • Broken at 2,500' AGL
From Apr-26 @ 13:00 to Apr-26 @ 16:00
FM261300 28012KT P6SM SCT035 SCT100
Wind Visibility Clouds
280° at 12 knots Greater than 6 miles
  • Scattered at 3,500' AGL
  • Scattered at 10,000' AGL
From Apr-26 @ 16:00 to Apr-27 @ 00:00
FM261600 27012G20KT P6SM SCT250
Wind Visibility Clouds
270° at 12 knots
 Gusting to 20 knots
Greater than 6 miles
  • Scattered at 25,000' AGL
KLGA 251729Z 2518/2624 07012KT 3SM -SHRA BR OVC006 FM252300 08007KT 1/2SM -SHRA FG OVC004 FM260200 VRB05KT 1/2SM FG VCSH OVC003 FM260800 27007KT 3SM BR SCT005 OVC015 FM261000 29010KT P6SM FEW010 BKN025 FM261300 28012KT P6SM SCT035 SCT100 FM261600 27012G20KT P6SM SCT250
Issued Apr-25 @ 17:29 UTC
(40 minutes ago)
Valid From Apr-25 @ 18:00 UTC
(9 minutes ago)
Valid To Apr-27 @ 00:00 UTC
(-1 days ago)
Apr-25 @ 18:00 - Apr-25 @ 23:00
Wind Visibility
70° at 12 knots 3 miles
Clouds
  • Overcast at 600' AGL
Conditions
  • Light Rain
  • Mist
From Apr-25 @ 23:00 - Apr-26 @ 02:00
Wind Visibility
80° at 7 knots 1/2 miles
Clouds
  • Overcast at 400' AGL
Conditions
  • Light Rain
  • Fog
From Apr-26 @ 02:00 - Apr-26 @ 08:00
Wind Visibility
Variable at 5 knots 1/2 miles
Clouds
  • Overcast at 300' AGL
Conditions
  • Fog
From Apr-26 @ 08:00 - Apr-26 @ 10:00
Wind Visibility
270° at 7 knots 3 miles
Clouds
  • Scattered at 500' AGL
  • Overcast at 1,500' AGL
Conditions
  • Mist
From Apr-26 @ 10:00 - Apr-26 @ 13:00
Wind Visibility
290° at 10 knots Greater than 6 miles
Clouds
  • Few at 1,000' AGL
  • Broken at 2,500' AGL
From Apr-26 @ 13:00 - Apr-26 @ 16:00
Wind Visibility
280° at 12 knots Greater than 6 miles
Clouds
  • Scattered at 3,500' AGL
  • Scattered at 10,000' AGL
From Apr-26 @ 16:00 - Apr-27 @ 00:00
Wind Visibility
270° at 12 knots
 Gusting to 20 knots
Greater than 6 miles
Clouds
  • Scattered at 25,000' AGL